LAN3201 SVMI-SKCG
Flight info
| Callsign | LAN3201 |
|---|---|
| Flight time | 1h 21m |
| Altitude | 36000 |
| Route | MARES1 MARES DCT IMBAT UP671 STA DCT BAQ BAQ3E |
| Aircraft | A320/M-SDE3FGHIRWY/LB1 |
Departure
| Time | 2026-05-07 13:31 |
|---|---|
| Airport | Maiquetía Simón Bolívar International Airport (SVMI) |
Arrival
| Time | 2026-05-07 14:53 |
|---|---|
| Airport | Rafael Nuñez International Airport (SKCG) |
| Time | Latitude | Longitude | Altitude | Speed | Heading |
|---|---|---|---|---|---|
| 2026-05-07 12:33 | 10.59814 | -67.00674 | 206 ft | 0 kts | 178° |
| 2026-05-07 13:24 | 10.59830 | -67.00675 | 233 ft | 4 kts | 178° |
| 2026-05-07 13:24 | 10.59857 | -67.00676 | 232 ft | 4 kts | 178° |
| 2026-05-07 13:24 | 10.59884 | -67.00676 | 235 ft | 4 kts | 189° |
| 2026-05-07 13:25 | 10.59908 | -67.00667 | 234 ft | 4 kts | 230° |
| 2026-05-07 13:25 | 10.59915 | -67.00654 | 233 ft | 0 kts | 268° |
| 2026-05-07 13:27 | 10.59914 | -67.00678 | 234 ft | 9 kts | 268° |
| 2026-05-07 13:27 | 10.59912 | -67.00771 | 233 ft | 17 kts | 268° |
| 2026-05-07 13:28 | 10.59907 | -67.00910 | 235 ft | 23 kts | 268° |
| 2026-05-07 13:28 | 10.59900 | -67.01080 | 239 ft | 25 kts | 267° |
| 2026-05-07 13:28 | 10.59900 | -67.01213 | 241 ft | 11 kts | 292° |
| 2026-05-07 13:28 | 10.59962 | -67.01239 | 241 ft | 9 kts | 353° |
| 2026-05-07 13:29 | 10.60024 | -67.01243 | 241 ft | 8 kts | 358° |
| 2026-05-07 13:29 | 10.60079 | -67.01245 | 241 ft | 8 kts | 357° |
| 2026-05-07 13:29 | 10.60132 | -67.01247 | 241 ft | 8 kts | 360° |
| 2026-05-07 13:29 | 10.60195 | -67.01247 | 238 ft | 10 kts | 359° |
| 2026-05-07 13:30 | 10.60278 | -67.01250 | 239 ft | 13 kts | 357° |
| 2026-05-07 13:30 | 10.60368 | -67.01249 | 241 ft | 11 kts | 18° |
| 2026-05-07 13:30 | 10.60384 | -67.01206 | 241 ft | 0 kts | 90° |
| 2026-05-07 13:30 | 10.60386 | -67.01115 | 239 ft | 45 kts | 88° |
| 2026-05-07 13:31 | 10.60403 | -67.00527 | 229 ft | 118 kts | 88° |
| 2026-05-07 13:31 | 10.60445 | -66.99502 | 238 ft | 169 kts | 88° |
| 2026-05-07 13:31 | 10.60519 | -66.98261 | 748 ft | 181 kts | 87° |
| 2026-05-07 13:31 | 10.60674 | -66.96950 | 1470 ft | 194 kts | 69° |
| 2026-05-07 13:32 | 10.61576 | -66.95936 | 2157 ft | 206 kts | 28° |
| 2026-05-07 13:32 | 10.63050 | -66.95695 | 2465 ft | 232 kts | 352° |
| 2026-05-07 13:32 | 10.64583 | -66.96455 | 2756 ft | 262 kts | 315° |
| 2026-05-07 13:32 | 10.65547 | -66.98065 | 3414 ft | 274 kts | 285° |
| 2026-05-07 13:33 | 10.65894 | -66.99985 | 4061 ft | 282 kts | 275° |
| 2026-05-07 13:33 | 10.66032 | -67.01962 | 4065 ft | 278 kts | 271° |
| 2026-05-07 13:33 | 10.66153 | -67.03945 | 4061 ft | 277 kts | 277° |
| 2026-05-07 13:33 | 10.66800 | -67.05773 | 4066 ft | 278 kts | 300° |
| 2026-05-07 13:34 | 10.67915 | -67.07379 | 4069 ft | 278 kts | 308° |
| 2026-05-07 13:34 | 10.70335 | -67.10453 | 4069 ft | 279 kts | 309° |
| 2026-05-07 13:34 | 10.71552 | -67.11981 | 4072 ft | 279 kts | 309° |
| 2026-05-07 13:35 | 10.72773 | -67.13518 | 4073 ft | 279 kts | 308° |
| 2026-05-07 13:35 | 10.73985 | -67.15051 | 4074 ft | 279 kts | 308° |
| 2026-05-07 13:35 | 10.75198 | -67.16588 | 4076 ft | 278 kts | 308° |
| 2026-05-07 13:35 | 10.76410 | -67.18125 | 4077 ft | 279 kts | 308° |
| 2026-05-07 13:36 | 10.77594 | -67.19683 | 4075 ft | 278 kts | 302° |
| 2026-05-07 13:36 | 10.78358 | -67.21478 | 4075 ft | 277 kts | 282° |
| 2026-05-07 13:36 | 10.78496 | -67.23439 | 4382 ft | 284 kts | 262° |
| 2026-05-07 13:36 | 10.78124 | -67.25398 | 5427 ft | 282 kts | 257° |
| 2026-05-07 13:37 | 10.77729 | -67.27367 | 6347 ft | 287 kts | 257° |
| 2026-05-07 13:37 | 10.77333 | -67.29375 | 7186 ft | 293 kts | 257° |
| 2026-05-07 13:37 | 10.76931 | -67.31422 | 8040 ft | 298 kts | 257° |
| 2026-05-07 13:37 | 10.76522 | -67.33502 | 8901 ft | 302 kts | 257° |
| 2026-05-07 13:38 | 10.76102 | -67.35613 | 9759 ft | 307 kts | 257° |
| 2026-05-07 13:38 | 10.75669 | -67.37764 | 10397 ft | 319 kts | 257° |
| 2026-05-07 13:38 | 10.75205 | -67.40053 | 10694 ft | 341 kts | 257° |
| 2026-05-07 13:38 | 10.74719 | -67.42454 | 11268 ft | 351 kts | 257° |
| 2026-05-07 13:39 | 10.74223 | -67.44907 | 11968 ft | 357 kts | 258° |
| 2026-05-07 13:39 | 10.73714 | -67.47432 | 12676 ft | 363 kts | 258° |
| 2026-05-07 13:39 | 10.73203 | -67.49968 | 13362 ft | 369 kts | 258° |
| 2026-05-07 13:39 | 10.72681 | -67.52546 | 14012 ft | 374 kts | 258° |
| 2026-05-07 13:40 | 10.72155 | -67.55145 | 14648 ft | 378 kts | 259° |
| 2026-05-07 13:40 | 10.71625 | -67.57770 | 15297 ft | 380 kts | 259° |
| 2026-05-07 13:40 | 10.71092 | -67.60418 | 15979 ft | 383 kts | 259° |
| 2026-05-07 13:40 | 10.70555 | -67.63071 | 16655 ft | 385 kts | 259° |
| 2026-05-07 13:41 | 10.70013 | -67.65745 | 17331 ft | 387 kts | 259° |
| 2026-05-07 13:41 | 10.69467 | -67.68441 | 18015 ft | 390 kts | 259° |
| 2026-05-07 13:41 | 10.68918 | -67.71146 | 18627 ft | 393 kts | 259° |
| 2026-05-07 13:41 | 10.68365 | -67.73877 | 19213 ft | 395 kts | 259° |
| 2026-05-07 13:42 | 10.67812 | -67.76611 | 19788 ft | 397 kts | 259° |
| 2026-05-07 13:42 | 10.67253 | -67.79365 | 20358 ft | 399 kts | 259° |
| 2026-05-07 13:42 | 10.66691 | -67.82131 | 20922 ft | 401 kts | 259° |
| 2026-05-07 13:42 | 10.66126 | -67.84913 | 21467 ft | 403 kts | 259° |
| 2026-05-07 13:43 | 10.65608 | -67.87716 | 21974 ft | 405 kts | 264° |
| 2026-05-07 13:43 | 10.65498 | -67.90579 | 22491 ft | 406 kts | 272° |
| 2026-05-07 13:43 | 10.65577 | -67.93457 | 22999 ft | 408 kts | 272° |
| 2026-05-07 13:43 | 10.65653 | -67.96348 | 23521 ft | 410 kts | 272° |
| 2026-05-07 13:44 | 10.65729 | -67.99251 | 23965 ft | 411 kts | 272° |
| 2026-05-07 13:44 | 10.65802 | -68.02159 | 24417 ft | 412 kts | 272° |
| 2026-05-07 13:44 | 10.65874 | -68.05070 | 24871 ft | 412 kts | 272° |
| 2026-05-07 13:44 | 10.65947 | -68.07985 | 25311 ft | 413 kts | 272° |
| 2026-05-07 13:45 | 10.66021 | -68.10906 | 25734 ft | 414 kts | 272° |
| 2026-05-07 13:45 | 10.66094 | -68.13881 | 26162 ft | 415 kts | 271° |
| 2026-05-07 13:45 | 10.66164 | -68.16812 | 26589 ft | 416 kts | 271° |
| 2026-05-07 13:45 | 10.66237 | -68.19764 | 27011 ft | 417 kts | 271° |
| 2026-05-07 13:46 | 10.66310 | -68.22711 | 27417 ft | 418 kts | 271° |
| 2026-05-07 13:46 | 10.66382 | -68.25670 | 27818 ft | 419 kts | 271° |
| 2026-05-07 13:46 | 10.66453 | -68.28639 | 28214 ft | 421 kts | 271° |
| 2026-05-07 13:46 | 10.66523 | -68.31616 | 28612 ft | 422 kts | 271° |
| 2026-05-07 13:47 | 10.66594 | -68.34601 | 29004 ft | 423 kts | 271° |
| 2026-05-07 13:47 | 10.66666 | -68.37602 | 29394 ft | 424 kts | 271° |
| 2026-05-07 13:47 | 10.66737 | -68.40600 | 29783 ft | 426 kts | 271° |
| 2026-05-07 13:47 | 10.66808 | -68.43613 | 30146 ft | 427 kts | 271° |
| 2026-05-07 13:48 | 10.66882 | -68.46643 | 30447 ft | 429 kts | 271° |
| 2026-05-07 13:48 | 10.66956 | -68.49673 | 30734 ft | 431 kts | 271° |
| 2026-05-07 13:48 | 10.67026 | -68.52722 | 31010 ft | 432 kts | 271° |
| 2026-05-07 13:48 | 10.67094 | -68.55790 | 31285 ft | 434 kts | 271° |
| 2026-05-07 13:49 | 10.67161 | -68.58857 | 31558 ft | 436 kts | 271° |
| 2026-05-07 13:49 | 10.67229 | -68.61940 | 31883 ft | 436 kts | 271° |
| 2026-05-07 13:49 | 10.67299 | -68.65017 | 32281 ft | 435 kts | 271° |
| 2026-05-07 13:49 | 10.67371 | -68.68085 | 32670 ft | 434 kts | 271° |
| 2026-05-07 13:50 | 10.67443 | -68.71189 | 33067 ft | 433 kts | 271° |
| 2026-05-07 13:50 | 10.67512 | -68.74204 | 33449 ft | 432 kts | 271° |
| 2026-05-07 13:50 | 10.67580 | -68.77289 | 33865 ft | 431 kts | 271° |
| 2026-05-07 13:50 | 10.67634 | -68.80331 | 34219 ft | 430 kts | 271° |
| 2026-05-07 13:51 | 10.67676 | -68.83368 | 34541 ft | 430 kts | 271° |
| 2026-05-07 13:51 | 10.67712 | -68.86405 | 34850 ft | 429 kts | 271° |
| 2026-05-07 13:51 | 10.67746 | -68.89438 | 35148 ft | 429 kts | 271° |
| 2026-05-07 13:51 | 10.67780 | -68.92463 | 35439 ft | 429 kts | 271° |
| 2026-05-07 13:52 | 10.67804 | -68.94473 | 35639 ft | 429 kts | 271° |
| 2026-05-07 13:52 | 10.67842 | -68.97503 | 35924 ft | 429 kts | 271° |
| 2026-05-07 13:52 | 10.67883 | -69.00535 | 36018 ft | 427 kts | 271° |
| 2026-05-07 13:53 | 10.67958 | -69.06512 | 36041 ft | 421 kts | 271° |
| 2026-05-07 13:53 | 10.68031 | -69.12456 | 36041 ft | 420 kts | 271° |
| 2026-05-07 13:54 | 10.68105 | -69.18397 | 36043 ft | 420 kts | 271° |
| 2026-05-07 13:54 | 10.68180 | -69.24380 | 36043 ft | 421 kts | 272° |
| 2026-05-07 13:55 | 10.68258 | -69.30330 | 36043 ft | 421 kts | 272° |
| 2026-05-07 13:55 | 10.68330 | -69.36287 | 36036 ft | 421 kts | 271° |
| 2026-05-07 13:56 | 10.68395 | -69.42242 | 36033 ft | 421 kts | 272° |
| 2026-05-07 13:56 | 10.68463 | -69.48201 | 36032 ft | 422 kts | 272° |
| 2026-05-07 13:57 | 10.68531 | -69.54165 | 36024 ft | 422 kts | 272° |
| 2026-05-07 13:57 | 10.68606 | -69.60125 | 36023 ft | 422 kts | 272° |
| 2026-05-07 13:58 | 10.68672 | -69.66097 | 36023 ft | 423 kts | 272° |
| 2026-05-07 13:58 | 10.68727 | -69.72074 | 36019 ft | 423 kts | 272° |
| 2026-05-07 13:59 | 10.68794 | -69.78050 | 36014 ft | 423 kts | 272° |
| 2026-05-07 13:59 | 10.68931 | -69.84069 | 36012 ft | 423 kts | 273° |
| 2026-05-07 14:00 | 10.69094 | -69.90047 | 36006 ft | 423 kts | 272° |
| 2026-05-07 14:00 | 10.69241 | -69.96028 | 35999 ft | 423 kts | 272° |
| 2026-05-07 14:01 | 10.69375 | -70.02011 | 35999 ft | 424 kts | 272° |
| 2026-05-07 14:01 | 10.69509 | -70.07999 | 35993 ft | 424 kts | 272° |
| 2026-05-07 14:02 | 10.69639 | -70.13984 | 35994 ft | 424 kts | 273° |
| 2026-05-07 14:02 | 10.69770 | -70.19979 | 35997 ft | 424 kts | 272° |
| 2026-05-07 14:03 | 10.69899 | -70.25975 | 35992 ft | 425 kts | 273° |
| 2026-05-07 14:03 | 10.70038 | -70.31979 | 35987 ft | 425 kts | 273° |
| 2026-05-07 14:04 | 10.70169 | -70.37988 | 35988 ft | 425 kts | 272° |
| 2026-05-07 14:04 | 10.70279 | -70.44046 | 35987 ft | 426 kts | 272° |
| 2026-05-07 14:05 | 10.70378 | -70.50080 | 35984 ft | 427 kts | 272° |
| 2026-05-07 14:05 | 10.70476 | -70.56110 | 35974 ft | 427 kts | 272° |
| 2026-05-07 14:06 | 10.70577 | -70.62158 | 35969 ft | 428 kts | 272° |
| 2026-05-07 14:06 | 10.70685 | -70.68204 | 35971 ft | 428 kts | 272° |
| 2026-05-07 14:07 | 10.70790 | -70.74263 | 35966 ft | 429 kts | 273° |
| 2026-05-07 14:07 | 10.70896 | -70.80333 | 35958 ft | 430 kts | 272° |
| 2026-05-07 14:08 | 10.71002 | -70.86409 | 35958 ft | 430 kts | 272° |
| 2026-05-07 14:08 | 10.71105 | -70.92490 | 35957 ft | 430 kts | 273° |
| 2026-05-07 14:09 | 10.71238 | -70.98584 | 35953 ft | 431 kts | 273° |
| 2026-05-07 14:09 | 10.71389 | -71.04686 | 35950 ft | 432 kts | 273° |
| 2026-05-07 14:10 | 10.71531 | -71.10795 | 35947 ft | 432 kts | 273° |
| 2026-05-07 14:10 | 10.71673 | -71.16947 | 35947 ft | 433 kts | 273° |
| 2026-05-07 14:11 | 10.71814 | -71.23066 | 35949 ft | 433 kts | 273° |
| 2026-05-07 14:11 | 10.71946 | -71.29194 | 35945 ft | 434 kts | 273° |
| 2026-05-07 14:12 | 10.72078 | -71.35327 | 35944 ft | 434 kts | 273° |
| 2026-05-07 14:12 | 10.72215 | -71.41468 | 35948 ft | 435 kts | 273° |
| 2026-05-07 14:13 | 10.72335 | -71.47618 | 35946 ft | 435 kts | 273° |
| 2026-05-07 14:13 | 10.72434 | -71.53774 | 35944 ft | 436 kts | 273° |
| 2026-05-07 14:14 | 10.72532 | -71.59937 | 35946 ft | 436 kts | 273° |
| 2026-05-07 14:14 | 10.72645 | -71.66104 | 35947 ft | 437 kts | 273° |
| 2026-05-07 14:15 | 10.72761 | -71.72279 | 35949 ft | 437 kts | 273° |
| 2026-05-07 14:15 | 10.72867 | -71.78460 | 35952 ft | 437 kts | 273° |
| 2026-05-07 14:16 | 10.72975 | -71.84643 | 35954 ft | 438 kts | 273° |
| 2026-05-07 14:16 | 10.73086 | -71.90871 | 35953 ft | 438 kts | 273° |
| 2026-05-07 14:17 | 10.73183 | -71.97067 | 35960 ft | 438 kts | 272° |
| 2026-05-07 14:17 | 10.73276 | -72.03274 | 35961 ft | 439 kts | 272° |
| 2026-05-07 14:18 | 10.73373 | -72.09471 | 35963 ft | 439 kts | 273° |
| 2026-05-07 14:18 | 10.73480 | -72.15678 | 35967 ft | 439 kts | 273° |
| 2026-05-07 14:19 | 10.73580 | -72.21888 | 35973 ft | 439 kts | 273° |
| 2026-05-07 14:19 | 10.73674 | -72.28102 | 35979 ft | 440 kts | 272° |
| 2026-05-07 14:20 | 10.73764 | -72.34326 | 35989 ft | 440 kts | 272° |
| 2026-05-07 14:20 | 10.73859 | -72.40539 | 35996 ft | 440 kts | 273° |
| 2026-05-07 14:21 | 10.73953 | -72.46761 | 36005 ft | 440 kts | 272° |
| 2026-05-07 14:21 | 10.74041 | -72.52988 | 36007 ft | 440 kts | 272° |
| 2026-05-07 14:22 | 10.74129 | -72.59252 | 36009 ft | 440 kts | 272° |
| 2026-05-07 14:22 | 10.74214 | -72.65480 | 36012 ft | 441 kts | 272° |
| 2026-05-07 14:23 | 10.74578 | -72.71680 | 36008 ft | 438 kts | 281° |
| 2026-05-07 14:23 | 10.75328 | -72.76775 | 36010 ft | 439 kts | 280° |
| 2026-05-07 14:24 | 10.76208 | -72.82916 | 36010 ft | 439 kts | 280° |
| 2026-05-07 14:24 | 10.77083 | -72.89068 | 36008 ft | 439 kts | 280° |
| 2026-05-07 14:25 | 10.77967 | -72.95213 | 36006 ft | 439 kts | 280° |
| 2026-05-07 14:25 | 10.78864 | -73.01395 | 36009 ft | 439 kts | 280° |
| 2026-05-07 14:26 | 10.79752 | -73.07547 | 36021 ft | 440 kts | 280° |
| 2026-05-07 14:26 | 10.80634 | -73.13699 | 36031 ft | 439 kts | 280° |
| 2026-05-07 14:27 | 10.81516 | -73.19851 | 36039 ft | 440 kts | 280° |
| 2026-05-07 14:27 | 10.82394 | -73.26009 | 36053 ft | 439 kts | 280° |
| 2026-05-07 14:28 | 10.83275 | -73.32156 | 36062 ft | 440 kts | 280° |
| 2026-05-07 14:28 | 10.84155 | -73.38312 | 36083 ft | 440 kts | 280° |
| 2026-05-07 14:29 | 10.85027 | -73.44470 | 36101 ft | 439 kts | 280° |
| 2026-05-07 14:29 | 10.85469 | -73.47577 | 35903 ft | 444 kts | 281° |
| 2026-05-07 14:29 | 10.85910 | -73.50677 | 35667 ft | 443 kts | 280° |
| 2026-05-07 14:29 | 10.86353 | -73.53786 | 35433 ft | 443 kts | 281° |
| 2026-05-07 14:30 | 10.86794 | -73.56876 | 35204 ft | 442 kts | 281° |
| 2026-05-07 14:30 | 10.87235 | -73.59976 | 34974 ft | 441 kts | 281° |
| 2026-05-07 14:30 | 10.87672 | -73.63057 | 34740 ft | 441 kts | 281° |
| 2026-05-07 14:30 | 10.88109 | -73.66147 | 34509 ft | 440 kts | 281° |
| 2026-05-07 14:31 | 10.88542 | -73.69219 | 34295 ft | 439 kts | 280° |
| 2026-05-07 14:31 | 10.88974 | -73.72299 | 34051 ft | 438 kts | 281° |
| 2026-05-07 14:31 | 10.89411 | -73.75397 | 33724 ft | 435 kts | 281° |
| 2026-05-07 14:31 | 10.89840 | -73.78437 | 33191 ft | 433 kts | 281° |
| 2026-05-07 14:32 | 10.90266 | -73.81466 | 32659 ft | 431 kts | 281° |
| 2026-05-07 14:32 | 10.90691 | -73.84482 | 32122 ft | 430 kts | 281° |
| 2026-05-07 14:32 | 10.91115 | -73.87488 | 31599 ft | 429 kts | 281° |
| 2026-05-07 14:32 | 10.91539 | -73.90486 | 31082 ft | 428 kts | 281° |
| 2026-05-07 14:33 | 10.91959 | -73.93475 | 30565 ft | 426 kts | 281° |
| 2026-05-07 14:33 | 10.92379 | -73.96451 | 30047 ft | 424 kts | 281° |
| 2026-05-07 14:33 | 10.92797 | -73.99412 | 29500 ft | 421 kts | 281° |
| 2026-05-07 14:33 | 10.93209 | -74.02346 | 29018 ft | 416 kts | 281° |
| 2026-05-07 14:34 | 10.93616 | -74.05248 | 28543 ft | 412 kts | 281° |
| 2026-05-07 14:34 | 10.94020 | -74.08123 | 28078 ft | 409 kts | 281° |
| 2026-05-07 14:34 | 10.94420 | -74.10973 | 27615 ft | 405 kts | 281° |
| 2026-05-07 14:34 | 10.94817 | -74.13799 | 27148 ft | 402 kts | 281° |
| 2026-05-07 14:35 | 10.95210 | -74.16607 | 26677 ft | 400 kts | 282° |
| 2026-05-07 14:35 | 10.95599 | -74.19400 | 26201 ft | 398 kts | 282° |
| 2026-05-07 14:35 | 10.95949 | -74.22183 | 25717 ft | 398 kts | 277° |
| 2026-05-07 14:35 | 10.95862 | -74.25005 | 25236 ft | 401 kts | 265° |
| 2026-05-07 14:36 | 10.95249 | -74.27781 | 24731 ft | 403 kts | 257° |
| 2026-05-07 14:36 | 10.94500 | -74.30530 | 24218 ft | 403 kts | 257° |
| 2026-05-07 14:36 | 10.93758 | -74.33281 | 23699 ft | 403 kts | 257° |
| 2026-05-07 14:36 | 10.93017 | -74.36036 | 23128 ft | 404 kts | 257° |
| 2026-05-07 14:37 | 10.92278 | -74.38785 | 22612 ft | 402 kts | 257° |
| 2026-05-07 14:37 | 10.90801 | -74.44279 | 21603 ft | 398 kts | 257° |
| 2026-05-07 14:37 | 10.90073 | -74.46983 | 21109 ft | 396 kts | 256° |
| 2026-05-07 14:38 | 10.89346 | -74.49686 | 20629 ft | 395 kts | 256° |
| 2026-05-07 14:38 | 10.88626 | -74.52370 | 20146 ft | 393 kts | 256° |
| 2026-05-07 14:38 | 10.87907 | -74.55046 | 19750 ft | 390 kts | 256° |
| 2026-05-07 14:38 | 10.87193 | -74.57702 | 19290 ft | 389 kts | 256° |
| 2026-05-07 14:39 | 10.86484 | -74.60330 | 18967 ft | 383 kts | 256° |
| 2026-05-07 14:39 | 10.85780 | -74.62935 | 18551 ft | 381 kts | 256° |
| 2026-05-07 14:39 | 10.85078 | -74.65526 | 18145 ft | 379 kts | 255° |
| 2026-05-07 14:39 | 10.84379 | -74.68095 | 17707 ft | 376 kts | 255° |
| 2026-05-07 14:40 | 10.83685 | -74.70658 | 17262 ft | 373 kts | 255° |
| 2026-05-07 14:40 | 10.83001 | -74.73178 | 16607 ft | 367 kts | 255° |
| 2026-05-07 14:40 | 10.82333 | -74.75647 | 16111 ft | 356 kts | 255° |
| 2026-05-07 14:40 | 10.81691 | -74.78026 | 15713 ft | 344 kts | 255° |
| 2026-05-07 14:41 | 10.81068 | -74.80338 | 15325 ft | 333 kts | 254° |
| 2026-05-07 14:41 | 10.80465 | -74.82579 | 14942 ft | 324 kts | 254° |
| 2026-05-07 14:41 | 10.79876 | -74.84752 | 14570 ft | 315 kts | 254° |
| 2026-05-07 14:41 | 10.79285 | -74.86875 | 14206 ft | 308 kts | 252° |
| 2026-05-07 14:42 | 10.78642 | -74.88943 | 13849 ft | 307 kts | 250° |
| 2026-05-07 14:42 | 10.77962 | -74.90999 | 13464 ft | 306 kts | 250° |
| 2026-05-07 14:42 | 10.77260 | -74.93082 | 13078 ft | 309 kts | 250° |
| 2026-05-07 14:42 | 10.76571 | -74.95127 | 12710 ft | 310 kts | 250° |
| 2026-05-07 14:43 | 10.75877 | -74.97209 | 12338 ft | 312 kts | 250° |
| 2026-05-07 14:43 | 10.75174 | -74.99330 | 11942 ft | 314 kts | 250° |
| 2026-05-07 14:43 | 10.74480 | -75.01438 | 11554 ft | 315 kts | 251° |
| 2026-05-07 14:43 | 10.73787 | -75.03551 | 11158 ft | 315 kts | 251° |
| 2026-05-07 14:44 | 10.73094 | -75.05670 | 10749 ft | 316 kts | 251° |
| 2026-05-07 14:44 | 10.72399 | -75.07794 | 10342 ft | 317 kts | 251° |
| 2026-05-07 14:44 | 10.71700 | -75.09925 | 9929 ft | 318 kts | 251° |
| 2026-05-07 14:44 | 10.71008 | -75.12030 | 9756 ft | 309 kts | 251° |
| 2026-05-07 14:45 | 10.70332 | -75.14093 | 9395 ft | 307 kts | 251° |
| 2026-05-07 14:45 | 10.69659 | -75.16146 | 9028 ft | 305 kts | 251° |
| 2026-05-07 14:45 | 10.68990 | -75.18187 | 8670 ft | 304 kts | 251° |
| 2026-05-07 14:45 | 10.68324 | -75.20219 | 8274 ft | 302 kts | 251° |
| 2026-05-07 14:46 | 10.67661 | -75.22243 | 7903 ft | 301 kts | 251° |
| 2026-05-07 14:46 | 10.67000 | -75.24259 | 7553 ft | 300 kts | 251° |
| 2026-05-07 14:46 | 10.66413 | -75.26044 | 7124 ft | 296 kts | 251° |
| 2026-05-07 14:46 | 10.65759 | -75.28051 | 6493 ft | 295 kts | 251° |
| 2026-05-07 14:47 | 10.65111 | -75.30020 | 5880 ft | 292 kts | 251° |
| 2026-05-07 14:47 | 10.64471 | -75.31964 | 5221 ft | 288 kts | 251° |
| 2026-05-07 14:47 | 10.63842 | -75.33882 | 4651 ft | 283 kts | 251° |
| 2026-05-07 14:47 | 10.63227 | -75.35752 | 4250 ft | 272 kts | 251° |
| 2026-05-07 14:48 | 10.62648 | -75.37515 | 4129 ft | 256 kts | 251° |
| 2026-05-07 14:48 | 10.62092 | -75.39208 | 3990 ft | 248 kts | 250° |
| 2026-05-07 14:48 | 10.61730 | -75.40903 | 3761 ft | 246 kts | 266° |
| 2026-05-07 14:48 | 10.61769 | -75.42636 | 3599 ft | 244 kts | 271° |
| 2026-05-07 14:49 | 10.61840 | -75.44377 | 3303 ft | 244 kts | 272° |
| 2026-05-07 14:49 | 10.61908 | -75.46074 | 3157 ft | 237 kts | 271° |
| 2026-05-07 14:49 | 10.61974 | -75.47709 | 3059 ft | 227 kts | 271° |
| 2026-05-07 14:49 | 10.61870 | -75.49281 | 2955 ft | 220 kts | 248° |
| 2026-05-07 14:50 | 10.60925 | -75.50418 | 2757 ft | 212 kts | 205° |
| 2026-05-07 14:50 | 10.59507 | -75.50704 | 2501 ft | 210 kts | 182° |
| 2026-05-07 14:50 | 10.58042 | -75.50762 | 2230 ft | 211 kts | 181° |
| 2026-05-07 14:50 | 10.56572 | -75.50813 | 2001 ft | 211 kts | 181° |
| 2026-05-07 14:51 | 10.55094 | -75.50865 | 1849 ft | 212 kts | 181° |
| 2026-05-07 14:51 | 10.53625 | -75.50919 | 1739 ft | 211 kts | 181° |
| 2026-05-07 14:51 | 10.52174 | -75.50974 | 1648 ft | 202 kts | 181° |
| 2026-05-07 14:51 | 10.50860 | -75.51027 | 1640 ft | 176 kts | 181° |
| 2026-05-07 14:52 | 10.49675 | -75.51074 | 1277 ft | 171 kts | 181° |
| 2026-05-07 14:52 | 10.48502 | -75.51119 | 871 ft | 164 kts | 180° |
| 2026-05-07 14:52 | 10.47412 | -75.51159 | 617 ft | 151 kts | 182° |
| 2026-05-07 14:52 | 10.46391 | -75.51196 | 377 ft | 142 kts | 182° |
| 2026-05-07 14:53 | 10.45429 | -75.51235 | 143 ft | 137 kts | 184° |
| 2026-05-07 14:53 | 10.44509 | -75.51278 | 51 ft | 118 kts | 183° |
| 2026-05-07 14:53 | 10.43992 | -75.51299 | 48 ft | 38 kts | 181° |
| 2026-05-07 14:53 | 10.43736 | -75.51310 | 51 ft | 37 kts | 183° |
| 2026-05-07 14:54 | 10.43482 | -75.51323 | 49 ft | 36 kts | 182° |
| 2026-05-07 14:54 | 10.43261 | -75.51327 | 51 ft | 18 kts | 173° |
| 2026-05-07 14:54 | 10.43165 | -75.51246 | 51 ft | 19 kts | 138° |
| 2026-05-07 14:54 | 10.43066 | -75.51281 | 51 ft | 19 kts | 264° |
| 2026-05-07 14:55 | 10.43164 | -75.51339 | 51 ft | 19 kts | 1° |
| 2026-05-07 14:55 | 10.43261 | -75.51335 | 51 ft | 23 kts | 2° |
| 2026-05-07 14:55 | 10.43442 | -75.51327 | 49 ft | 28 kts | 3° |
| 2026-05-07 14:55 | 10.43644 | -75.51315 | 51 ft | 30 kts | 3° |
| 2026-05-07 14:56 | 10.43860 | -75.51306 | 51 ft | 32 kts | 1° |
| 2026-05-07 14:56 | 10.44091 | -75.51298 | 51 ft | 34 kts | 3° |
| 2026-05-07 14:56 | 10.44333 | -75.51285 | 51 ft | 36 kts | 2° |
| 2026-05-07 14:56 | 10.44511 | -75.51283 | 51 ft | 16 kts | 343° |
| 2026-05-07 14:57 | 10.44553 | -75.51373 | 51 ft | 13 kts | 278° |
| 2026-05-07 14:57 | 10.44573 | -75.51443 | 51 ft | 9 kts | 314° |
| 2026-05-07 14:57 | 10.44607 | -75.51489 | 51 ft | 8 kts | 278° |
| 2026-05-07 14:57 | 10.44609 | -75.51537 | 51 ft | 4 kts | 272° |
| 2026-05-07 14:58 | 10.44610 | -75.51544 | 51 ft | 0 kts | 272° |